Time;durP1;ratioP1;P1;durP2;ratioP2;P2;SDS_P1;SDS_P2;PMS_P1;PMS_P2;Temp;Humidity;BMP_temperature;BMP_pressure;BME280_temperature;BME280_humidity;BME280_pressure;Samples;Min_cycle;Max_cycle;Signal;HPM_P1;HPM_P2
2022/10/13 00:00:32;;;;;;;8.32;4.43;;;16.00;74.40;;;;;;5025680;28;20109;-76
2022/10/13 00:03:02;;;;;;;8.13;4.63;;;15.90;74.30;;;;;;5024721;28;20036;-75
2022/10/13 00:05:29;;;;;;;6.68;4.10;;;15.90;74.50;;;;;;5022730;28;20071;-75
2022/10/13 00:07:55;;;;;;;7.28;4.30;;;15.90;74.30;;;;;;5022545;28;20013;-75
2022/10/13 00:10:21;;;;;;;8.55;4.70;;;15.90;74.20;;;;;;5039253;28;20021;-75
2022/10/13 00:12:46;;;;;;;7.50;4.18;;;16.00;74.30;;;;;;5025099;28;20218;-76
2022/10/13 00:15:12;;;;;;;9.45;4.70;;;15.90;74.10;;;;;;5024153;28;20665;-75
2022/10/13 00:17:37;;;;;;;7.68;4.45;;;16.00;74.10;;;;;;5023830;28;20458;-76
2022/10/13 00:20:05;;;;;;;8.63;4.63;;;15.90;74.00;;;;;;5024086;28;20029;-76
2022/10/13 00:22:31;;;;;;;7.50;4.07;;;15.90;74.10;;;;;;5024394;28;20096;-75
2022/10/13 00:24:57;;;;;;;8.90;4.38;;;15.90;74.10;;;;;;5025070;28;20056;-75
2022/10/13 00:27:22;;;;;;;8.68;4.68;;;15.90;74.10;;;;;;5025128;28;20830;-75
2022/10/13 00:29:48;;;;;;;8.13;4.65;;;15.90;74.20;;;;;;5025089;28;20596;-74
2022/10/13 00:32:13;;;;;;;9.13;4.72;;;15.90;74.20;;;;;;5025002;28;20036;-75
2022/10/13 00:34:39;;;;;;;8.35;4.85;;;15.90;74.30;;;;;;5025364;28;20030;-75
2022/10/13 00:37:05;;;;;;;8.57;4.50;;;16.00;74.50;;;;;;5023907;28;20030;-74
2022/10/13 00:39:31;;;;;;;9.63;4.60;;;15.90;74.40;;;;;;5025013;28;20036;-76
2022/10/13 00:41:58;;;;;;;7.68;4.53;;;15.90;74.50;;;;;;5024826;28;20543;-76
2022/10/13 00:45:01;;;;;;;8.60;4.88;;;15.90;74.50;;;;;;5023991;28;20022;-74
2022/10/13 00:47:40;;;;;;;8.55;4.78;;;15.90;74.70;;;;;;5025125;28;20029;-77
2022/10/13 00:50:09;;;;;;;8.02;4.95;;;15.90;74.70;;;;;;5025303;28;20427;-76
2022/10/13 00:52:36;;;;;;;8.57;5.25;;;15.90;74.70;;;;;;5024646;28;20049;-75
2022/10/13 00:55:05;;;;;;;9.32;5.40;;;15.80;74.60;;;;;;5024873;28;20108;-76
2022/10/13 00:57:31;;;;;;;9.68;5.40;;;15.80;74.70;;;;;;5023649;28;20136;-78
2022/10/13 00:59:58;;;;;;;9.25;5.40;;;15.90;74.80;;;;;;5040271;28;20029;-74
2022/10/13 01:02:28;;;;;;;7.88;5.00;;;15.80;74.70;;;;;;5024667;28;20946;-75
2022/10/13 01:04:55;;;;;;;8.55;4.47;;;15.90;75.00;;;;;;5024584;28;20029;-78
2022/10/13 01:07:21;;;;;;;8.38;5.13;;;15.90;74.80;;;;;;5040130;28;20025;-75
2022/10/13 01:09:46;;;;;;;10.27;5.20;;;15.80;75.00;;;;;;5024574;28;20022;-75
2022/10/13 01:12:41;;;;;;;8.70;5.22;;;15.90;75.00;;;;;;5023311;28;20025;-75
2022/10/13 01:15:33;;;;;;;10.65;5.50;;;15.90;75.00;;;;;;5024763;28;20049;-75
2022/10/13 01:18:12;;;;;;;8.75;5.18;;;15.90;74.90;;;;;;5039950;28;20120;-75
2022/10/13 01:21:04;;;;;;;8.57;5.50;;;15.90;74.90;;;;;;5024317;28;20025;-76
2022/10/13 01:23:57;;;;;;;9.23;5.18;;;15.90;74.90;;;;;;5023583;28;20017;-74
2022/10/13 01:26:40;;;;;;;8.50;5.38;;;15.90;74.80;;;;;;5023525;28;20032;-75
2022/10/13 01:29:43;;;;;;;10.38;5.63;;;15.90;74.90;;;;;;5024547;28;20028;-77
2022/10/13 01:32:30;;;;;;;9.55;5.57;;;15.90;75.00;;;;;;5024403;28;20029;-75
2022/10/13 01:35:19;;;;;;;8.57;5.22;;;15.90;75.00;;;;;;5024655;28;20730;-74
2022/10/13 01:37:50;;;;;;;8.38;5.35;;;15.80;75.00;;;;;;5028074;28;20065;-74
2022/10/13 01:40:38;;;;;;;8.97;5.37;;;15.80;75.00;;;;;;5027959;28;20036;-74
2022/10/13 01:43:22;;;;;;;10.88;5.90;;;15.90;75.10;;;;;;5043777;28;20030;-76
2022/10/13 01:45:57;;;;;;;8.88;5.53;;;15.80;75.20;;;;;;5043111;28;20438;-74
2022/10/13 01:48:24;;;;;;;9.43;5.60;;;15.90;75.20;;;;;;5028270;28;20026;-77
2022/10/13 01:50:50;;;;;;;9.90;5.80;;;15.80;75.20;;;;;;5027613;28;20017;-78
2022/10/13 01:53:18;;;;;;;8.80;5.40;;;15.80;75.20;;;;;;5026547;28;20372;-76
2022/10/13 01:55:58;;;;;;;8.35;5.63;;;15.90;75.30;;;;;;5027907;28;20589;-77
2022/10/13 01:58:31;;;;;;;10.97;6.20;;;15.80;75.30;;;;;;5026813;28;20037;-75
2022/10/13 02:01:35;;;;;;;9.50;5.68;;;15.80;75.30;;;;;;5027490;28;20080;-78
2022/10/13 02:04:29;;;;;;;9.32;5.68;;;15.80;75.30;;;;;;5022777;28;20053;-77
2022/10/13 02:07:09;;;;;;;8.00;5.65;;;15.80;75.20;;;;;;5027635;28;20033;-74
2022/10/13 02:09:46;;;;;;;8.38;5.43;;;15.80;75.30;;;;;;5027597;28;20040;-74
2022/10/13 02:12:29;;;;;;;8.98;5.85;;;15.80;75.40;;;;;;5027436;28;20075;-74
2022/10/13 02:14:57;;;;;;;9.18;5.75;;;15.80;75.30;;;;;;5027575;28;20033;-73
2022/10/13 02:17:25;;;;;;;8.60;5.70;;;15.80;75.40;;;;;;5026286;28;20036;-75
2022/10/13 02:19:52;;;;;;;8.75;5.50;;;15.80;75.30;;;;;;5027339;28;20025;-76
2022/10/13 02:22:19;;;;;;;9.50;5.95;;;15.80;75.40;;;;;;5027301;28;20079;-74
2022/10/13 02:24:45;;;;;;;9.65;6.15;;;15.80;75.30;;;;;;5027146;28;20053;-75
2022/10/13 02:27:10;;;;;;;11.05;6.20;;;15.80;75.30;;;;;;5027435;28;20018;-75
2022/10/13 02:29:53;;;;;;;9.85;5.47;;;15.80;75.30;;;;;;5027250;28;20028;-77
2022/10/13 02:32:19;;;;;;;8.75;6.20;;;15.80;75.30;;;;;;5026938;28;20036;-75
2022/10/13 02:34:44;;;;;;;8.80;5.72;;;15.90;75.30;;;;;;5026983;28;20231;-74
2022/10/13 02:37:10;;;;;;;9.40;6.13;;;15.80;75.40;;;;;;5042437;28;20048;-74
2022/10/13 02:39:35;;;;;;;9.43;5.68;;;15.80;75.40;;;;;;5027122;28;20025;-75
2022/10/13 02:42:01;;;;;;;8.82;5.53;;;15.80;75.50;;;;;;5041793;28;20072;-74
2022/10/13 02:44:26;;;;;;;8.27;5.53;;;15.80;75.50;;;;;;5023758;28;20376;-74
2022/10/13 02:46:52;;;;;;;8.80;6.07;;;15.80;75.50;;;;;;5034146;28;20022;-74
2022/10/13 02:49:17;;;;;;;11.55;6.47;;;15.80;75.60;;;;;;5045835;28;20049;-75
2022/10/13 02:51:43;;;;;;;9.05;6.20;;;15.80;75.60;;;;;;5046299;28;20103;-76
2022/10/13 02:54:08;;;;;;;10.18;6.28;;;15.80;75.60;;;;;;5045411;28;20055;-78
2022/10/13 02:56:34;;;;;;;12.40;6.38;;;15.80;75.60;;;;;;5046548;28;20028;-73
2022/10/13 02:58:59;;;;;;;10.18;6.00;;;15.80;75.60;;;;;;5045077;28;20064;-73
2022/10/13 03:01:25;;;;;;;9.68;5.53;;;15.80;75.70;;;;;;5046131;28;20094;-76
2022/10/13 03:03:50;;;;;;;8.93;5.90;;;15.90;75.80;;;;;;5046376;28;20774;-75
2022/10/13 03:06:16;;;;;;;8.82;6.00;;;15.80;75.70;;;;;;5044866;28;20029;-77
2022/10/13 03:08:41;;;;;;;9.75;5.88;;;15.80;76.20;;;;;;5046289;28;20017;-74
2022/10/13 03:11:07;;;;;;;9.35;5.70;;;15.70;75.70;;;;;;5044736;28;20118;-74
2022/10/13 03:13:32;;;;;;;9.20;6.13;;;15.80;75.70;;;;;;5046465;28;20745;-74
2022/10/13 03:15:58;;;;;;;10.00;6.50;;;15.70;75.70;;;;;;5046211;28;20044;-74
2022/10/13 03:18:23;;;;;;;9.57;6.05;;;15.70;75.80;;;;;;5046002;28;20064;-76
2022/10/13 03:21:01;;;;;;;10.23;6.10;;;15.80;75.90;;;;;;5044436;28;20506;-76
2022/10/13 03:23:26;;;;;;;10.30;6.15;;;15.80;75.80;;;;;;5046038;28;20517;-74
2022/10/13 03:25:53;;;;;;;9.00;5.88;;;15.80;75.90;;;;;;5045985;28;20029;-76
2022/10/13 03:28:19;;;;;;;9.18;6.20;;;15.80;75.80;;;;;;5044663;28;20028;-75
2022/10/13 03:30:45;;;;;;;9.82;6.18;;;15.80;75.80;;;;;;5053880;28;20109;-74
2022/10/13 03:33:10;;;;;;;10.25;6.35;;;15.80;75.80;;;;;;5051526;28;20052;-73
2022/10/13 03:35:36;;;;;;;9.48;6.10;;;15.80;75.80;;;;;;5044236;28;20116;-74
2022/10/13 03:38:01;;;;;;;8.75;5.80;;;15.80;75.70;;;;;;5044377;28;20032;-77
2022/10/13 03:40:27;;;;;;;11.07;6.43;;;15.70;75.70;;;;;;5043668;28;20040;-74
2022/10/13 03:42:53;;;;;;;9.73;6.03;;;15.80;75.70;;;;;;5045659;28;20025;-75
2022/10/13 03:45:19;;;;;;;9.05;5.95;;;15.80;75.80;;;;;;5044008;28;20032;-74
2022/10/13 03:47:44;;;;;;;8.63;6.28;;;15.80;75.80;;;;;;5044106;28;20032;-75
2022/10/13 03:50:10;;;;;;;10.80;6.28;;;15.80;75.80;;;;;;5045142;28;20090;-75
2022/10/13 03:52:35;;;;;;;9.13;6.20;;;15.80;75.90;;;;;;5044927;28;20025;-74
2022/10/13 03:55:01;;;;;;;9.30;6.30;;;15.80;75.90;;;;;;5045164;28;20029;-73
2022/10/13 03:57:27;;;;;;;8.88;5.72;;;15.80;75.90;;;;;;5044666;28;20029;-74
2022/10/13 03:59:55;;;;;;;9.43;5.75;;;15.80;76.10;;;;;;5044645;28;20036;-74
2022/10/13 04:02:21;;;;;;;9.10;5.85;;;15.70;76.00;;;;;;5043200;28;20021;-75
2022/10/13 04:04:46;;;;;;;8.75;5.75;;;15.70;76.00;;;;;;5043472;28;20106;-74
2022/10/13 04:07:12;;;;;;;9.68;6.10;;;15.70;76.00;;;;;;5043980;28;20061;-74
2022/10/13 04:09:37;;;;;;;10.45;6.47;;;15.70;76.10;;;;;;5044903;28;20060;-74
2022/10/13 04:12:04;;;;;;;9.73;6.90;;;15.70;76.10;;;;;;5043786;28;20033;-77
2022/10/13 04:14:29;;;;;;;11.43;6.28;;;15.70;76.10;;;;;;5042759;28;20029;-74
2022/10/13 04:16:55;;;;;;;12.88;6.93;;;15.70;76.10;;;;;;5045475;28;20033;-73
2022/10/13 04:19:20;;;;;;;12.40;6.85;;;15.70;76.00;;;;;;5044385;28;20071;-73
2022/10/13 04:21:46;;;;;;;11.80;6.68;;;15.70;75.90;;;;;;5042790;28;20029;-75
2022/10/13 04:24:12;;;;;;;11.25;5.85;;;15.70;76.00;;;;;;5043985;28;20056;-77
2022/10/13 04:26:38;;;;;;;10.30;5.82;;;15.70;76.00;;;;;;5045012;28;20056;-74
2022/10/13 04:29:06;;;;;;;11.18;6.15;;;15.70;76.30;;;;;;5045185;28;20505;-75
2022/10/13 04:31:32;;;;;;;10.82;6.70;;;15.70;76.20;;;;;;5044794;28;20086;-74
2022/10/13 04:33:58;;;;;;;11.57;6.38;;;15.70;76.20;;;;;;5043749;28;20028;-74
2022/10/13 04:36:24;;;;;;;9.98;6.30;;;15.70;76.10;;;;;;5044164;28;20029;-74
2022/10/13 04:38:50;;;;;;;13.32;6.50;;;15.70;76.10;;;;;;5043678;28;20032;-76
2022/10/13 04:41:17;;;;;;;10.40;6.20;;;15.80;76.10;;;;;;5043504;28;20044;-74
2022/10/13 04:43:42;;;;;;;10.52;6.28;;;15.80;76.20;;;;;;5045259;28;20487;-73
2022/10/13 04:46:13;;;;;;;13.13;6.40;;;15.80;76.20;;;;;;5034362;28;20037;-73
2022/10/13 04:48:40;;;;;;;13.63;6.30;;;15.80;76.20;;;;;;5043433;28;20040;-75
2022/10/13 04:51:11;;;;;;;11.07;6.32;;;15.80;76.20;;;;;;5044819;28;20082;-76
2022/10/13 04:53:37;;;;;;;12.48;6.15;;;15.80;76.20;;;;;;5044446;28;20021;-76
2022/10/13 04:56:07;;;;;;;11.63;6.40;;;15.80;76.30;;;;;;5045306;28;20398;-74
2022/10/13 04:58:33;;;;;;;8.82;5.90;;;15.70;76.30;;;;;;5045182;28;20025;-75
2022/10/13 05:00:58;;;;;;;10.07;5.88;;;15.70;76.30;;;;;;5042051;28;20044;-74
2022/10/13 05:03:24;;;;;;;11.65;6.30;;;15.80;76.30;;;;;;5045320;28;20091;-74
2022/10/13 05:05:50;;;;;;;10.02;6.03;;;15.80;76.10;;;;;;5043678;28;20133;-74
2022/10/13 05:08:16;;;;;;;9.30;5.57;;;15.80;76.10;;;;;;5045013;28;20076;-75
2022/10/13 05:10:42;;;;;;;11.55;6.00;;;15.90;76.20;;;;;;5045580;28;20021;-76
2022/10/13 05:13:07;;;;;;;10.57;5.68;;;15.90;76.00;;;;;;5047544;28;20032;-74
2022/10/13 05:15:33;;;;;;;10.50;5.93;;;15.90;76.00;;;;;;5047919;28;20437;-74
2022/10/13 05:17:59;;;;;;;10.50;5.90;;;15.90;76.00;;;;;;5048127;28;20029;-75
2022/10/13 05:20:25;;;;;;;9.98;5.85;;;15.90;75.90;;;;;;5048104;28;20037;-75
2022/10/13 05:22:51;;;;;;;10.25;5.53;;;16.00;76.00;;;;;;5048645;28;20037;-76
2022/10/13 05:25:17;;;;;;;9.02;5.90;;;15.90;75.90;;;;;;5047661;28;20090;-74
2022/10/13 05:27:45;;;;;;;10.15;5.80;;;16.00;76.00;;;;;;5048573;28;20021;-75
2022/10/13 05:30:11;;;;;;;10.00;6.00;;;15.90;75.90;;;;;;5047299;28;20514;-75
2022/10/13 05:32:36;;;;;;;9.13;5.43;;;15.90;75.90;;;;;;5048325;28;20032;-75
2022/10/13 05:35:02;;;;;;;10.52;6.20;;;15.90;76.00;;;;;;5047612;28;20035;-78
2022/10/13 05:37:28;;;;;;;9.70;5.60;;;15.90;75.90;;;;;;5047164;28;20029;-76
2022/10/13 05:39:53;;;;;;;7.38;4.88;;;16.00;75.90;;;;;;5047272;28;20043;-74
2022/10/13 05:42:19;;;;;;;9.13;5.72;;;16.00;75.80;;;;;;5047943;28;20053;-75
2022/10/13 05:44:44;;;;;;;8.75;5.80;;;16.00;75.90;;;;;;5046928;28;20900;-75
2022/10/13 05:47:10;;;;;;;8.60;5.13;;;16.00;75.90;;;;;;5047976;28;20021;-75
2022/10/13 05:49:38;;;;;;;9.27;4.80;;;16.00;75.90;;;;;;5048835;28;20395;-75
2022/10/13 05:52:08;;;;;;;9.52;5.00;;;16.10;75.90;;;;;;5046745;28;20078;-75
2022/10/13 05:54:38;;;;;;;8.05;5.20;;;16.10;75.90;;;;;;5046668;28;20061;-78
2022/10/13 05:57:09;;;;;;;8.57;5.43;;;16.10;75.80;;;;;;5048176;28;20028;-74
2022/10/13 05:59:41;;;;;;;8.13;5.10;;;16.10;75.80;;;;;;5046570;28;20035;-74
2022/10/13 06:02:10;;;;;;;7.38;4.80;;;16.10;76.00;;;;;;5047111;28;20025;-74
2022/10/13 06:04:42;;;;;;;7.25;4.75;;;16.10;76.10;;;;;;5047420;28;20035;-75
2022/10/13 06:07:08;;;;;;;9.02;5.25;;;16.10;76.20;;;;;;5046035;28;20021;-74
2022/10/13 06:09:39;;;;;;;7.82;5.05;;;16.10;76.30;;;;;;5046642;28;20099;-76
2022/10/13 06:12:06;;;;;;;7.43;4.93;;;16.00;76.30;;;;;;5046092;28;20075;-75
2022/10/13 06:14:32;;;;;;;7.90;4.75;;;16.00;76.40;;;;;;5046057;28;20032;-74
2022/10/13 06:16:57;;;;;;;7.75;4.60;;;16.00;76.40;;;;;;5047656;28;20025;-75
2022/10/13 06:19:23;;;;;;;7.95;4.70;;;16.00;76.50;;;;;;5046194;28;20025;-74
2022/10/13 06:21:49;;;;;;;8.25;4.53;;;16.00;76.40;;;;;;5044778;28;20075;-76
2022/10/13 06:24:14;;;;;;;7.55;4.65;;;16.00;76.50;;;;;;5046047;28;20028;-75
2022/10/13 06:26:40;;;;;;;8.82;5.07;;;16.00;76.50;;;;;;5045938;28;20033;-74
2022/10/13 06:29:05;;;;;;;7.55;4.72;;;16.00;76.50;;;;;;5045940;28;20024;-74
2022/10/13 06:31:31;;;;;;;8.55;4.93;;;16.00;76.50;;;;;;5047067;28;20483;-74
2022/10/13 06:33:57;;;;;;;7.20;4.60;;;16.00;76.50;;;;;;5047119;28;20064;-77
2022/10/13 06:36:23;;;;;;;10.65;4.97;;;16.00;76.50;;;;;;5047330;28;20033;-74
2022/10/13 06:38:49;;;;;;;8.05;4.47;;;16.00;76.50;;;;;;5047165;28;20568;-75
2022/10/13 06:41:14;;;;;;;8.23;5.03;;;16.00;76.60;;;;;;5046808;28;20033;-74
2022/10/13 06:43:40;;;;;;;7.97;4.93;;;16.00;76.60;;;;;;5045620;28;20083;-77
2022/10/13 06:46:06;;;;;;;9.27;5.05;;;16.00;76.60;;;;;;5047490;28;20029;-75
2022/10/13 06:48:32;;;;;;;7.97;4.80;;;16.00;76.60;;;;;;5046474;28;20033;-75
2022/10/13 06:51:06;;;;;;;8.38;4.53;;;16.00;76.70;;;;;;5045816;28;20021;-78
2022/10/13 06:53:32;;;;;;;6.55;4.00;;;16.00;76.60;;;;;;5047624;28;20032;-76
2022/10/13 06:55:58;;;;;;;8.30;4.28;;;16.10;76.70;;;;;;5045910;28;20037;-75
2022/10/13 06:58:24;;;;;;;7.03;4.65;;;16.10;76.70;;;;;;5046943;28;20032;-75
2022/10/13 07:00:50;;;;;;;6.47;3.90;;;16.10;76.60;;;;;;5044862;28;20029;-74
2022/10/13 07:03:15;;;;;;;7.80;4.40;;;16.10;76.50;;;;;;5045884;28;20044;-74
2022/10/13 07:05:41;;;;;;;7.18;4.55;;;16.10;76.50;;;;;;5046516;28;20025;-74
2022/10/13 07:08:06;;;;;;;7.38;4.28;;;16.10;76.50;;;;;;5045016;28;20075;-74
2022/10/13 07:10:32;;;;;;;7.38;4.43;;;16.10;76.60;;;;;;5046223;28;20032;-75
2022/10/13 07:12:57;;;;;;;6.22;4.03;;;16.10;76.70;;;;;;5045060;28;20082;-74
2022/10/13 07:15:23;;;;;;;8.05;4.35;;;16.10;76.80;;;;;;5046702;28;20063;-75
2022/10/13 07:17:52;;;;;;;7.50;4.57;;;16.10;76.80;;;;;;5046283;28;20099;-74
2022/10/13 07:20:19;;;;;;;7.57;4.60;;;16.10;76.80;;;;;;5044965;28;20025;-75
2022/10/13 07:22:44;;;;;;;6.88;4.07;;;16.10;76.80;;;;;;5044908;28;20434;-74
2022/10/13 07:25:10;;;;;;;6.38;3.97;;;16.10;76.90;;;;;;5045984;28;20032;-74
2022/10/13 07:27:37;;;;;;;6.55;4.22;;;16.10;77.00;;;;;;5045081;28;20813;-74
2022/10/13 07:30:03;;;;;;;6.82;4.45;;;16.10;77.00;;;;;;5044866;28;20335;-74
2022/10/13 07:32:30;;;;;;;7.78;4.40;;;16.10;77.00;;;;;;5045829;28;20017;-77
2022/10/13 07:34:55;;;;;;;6.78;4.60;;;16.10;77.10;;;;;;5045915;28;20094;-74
2022/10/13 07:37:21;;;;;;;7.63;4.55;;;16.10;77.10;;;;;;5046163;28;20028;-75
2022/10/13 07:39:47;;;;;;;6.93;4.38;;;16.10;77.10;;;;;;5046131;28;20078;-73
2022/10/13 07:42:12;;;;;;;7.38;4.30;;;16.10;77.20;;;;;;5045717;28;20033;-74
2022/10/13 07:44:38;;;;;;;6.95;4.28;;;16.10;77.20;;;;;;5045727;28;20053;-75
2022/10/13 07:47:03;;;;;;;7.07;3.90;;;16.10;77.20;;;;;;5045825;28;20025;-74
2022/10/13 07:49:29;;;;;;;7.25;4.00;;;16.20;77.20;;;;;;5045804;28;20041;-76
2022/10/13 07:51:54;;;;;;;6.78;4.38;;;16.10;77.20;;;;;;5044721;28;20546;-75
2022/10/13 07:54:20;;;;;;;6.68;3.70;;;16.10;77.20;;;;;;5046289;28;20029;-76
2022/10/13 07:56:45;;;;;;;6.53;3.90;;;16.10;77.20;;;;;;5046040;28;20478;-78
2022/10/13 07:59:11;;;;;;;6.57;3.90;;;16.10;77.30;;;;;;5044637;28;20728;-75
2022/10/13 08:01:37;;;;;;;7.65;4.05;;;16.10;77.20;;;;;;5044201;28;20541;-76
2022/10/13 08:04:02;;;;;;;7.00;3.70;;;16.20;77.10;;;;;;5044415;28;20127;-74
2022/10/13 08:06:28;;;;;;;7.28;4.07;;;16.20;77.00;;;;;;5045470;28;20032;-75
2022/10/13 08:08:53;;;;;;;6.25;3.97;;;16.20;77.00;;;;;;5045302;28;20032;-75
2022/10/13 08:11:19;;;;;;;6.63;3.70;;;16.20;76.90;;;;;;5043931;28;20094;-76
2022/10/13 08:13:49;;;;;;;6.78;4.20;;;16.20;77.00;;;;;;5045198;28;20033;-75
2022/10/13 08:16:15;;;;;;;6.38;3.88;;;16.20;76.90;;;;;;5045374;28;20060;-75
2022/10/13 08:18:41;;;;;;;5.97;3.55;;;16.20;77.10;;;;;;5045572;28;20498;-75
2022/10/13 08:21:11;;;;;;;6.25;3.50;;;16.20;77.20;;;;;;5043566;28;20043;-75
2022/10/13 08:23:37;;;;;;;5.97;3.70;;;16.20;77.20;;;;;;5043757;28;20029;-74
2022/10/13 08:26:02;;;;;;;5.55;3.60;;;16.20;77.20;;;;;;5043968;28;20582;-74
2022/10/13 08:28:28;;;;;;;6.05;3.50;;;16.20;77.20;;;;;;5044006;28;20030;-75
2022/10/13 08:30:58;;;;;;;6.00;3.60;;;16.20;77.20;;;;;;5043494;28;20059;-75
2022/10/13 08:33:24;;;;;;;6.68;3.50;;;16.20;77.30;;;;;;5045598;28;20073;-75
2022/10/13 08:35:50;;;;;;;7.50;3.50;;;16.20;77.30;;;;;;5045143;28;20092;-74
2022/10/13 08:38:16;;;;;;;5.93;3.50;;;16.20;77.30;;;;;;5044355;28;20045;-76
2022/10/13 08:40:46;;;;;;;6.45;3.58;;;16.20;77.20;;;;;;5043681;28;20029;-77
2022/10/13 08:43:15;;;;;;;5.25;3.33;;;16.20;77.30;;;;;;5046170;28;20078;-77
2022/10/13 08:45:41;;;;;;;5.82;3.80;;;16.30;77.30;;;;;;5048634;28;20032;-75
2022/10/13 08:48:30;;;;;;;6.95;3.92;;;16.30;77.30;;;;;;5049497;28;20025;-75
2022/10/13 08:51:00;;;;;;;6.20;3.80;;;16.20;77.20;;;;;;5047660;28;20479;-75
2022/10/13 08:53:28;;;;;;;5.95;3.38;;;16.30;77.30;;;;;;5048874;28;20040;-74
2022/10/13 08:56:19;;;;;;;5.70;3.40;;;16.30;77.20;;;;;;5047679;28;20112;-75
2022/10/13 08:58:46;;;;;;;5.85;3.88;;;16.30;77.20;;;;;;5049052;28;20064;-75
2022/10/13 09:01:15;;;;;;;6.03;3.70;;;16.30;77.20;;;;;;5048765;28;20514;-75
2022/10/13 09:03:59;;;;;;;6.15;3.40;;;16.30;77.20;;;;;;5048818;28;20037;-76
2022/10/13 09:06:30;;;;;;;6.20;3.60;;;16.30;77.10;;;;;;5048901;28;20094;-76
2022/10/13 09:09:07;;;;;;;6.65;3.75;;;16.30;77.10;;;;;;5048730;28;20108;-75
2022/10/13 09:11:39;;;;;;;6.03;3.80;;;16.30;77.10;;;;;;5047012;28;20672;-75
2022/10/13 09:14:09;;;;;;;5.38;3.15;;;16.30;77.10;;;;;;5047519;28;20032;-75
2022/10/13 09:16:37;;;;;;;6.20;3.58;;;16.30;77.00;;;;;;5048706;28;20096;-75
2022/10/13 09:19:27;;;;;;;5.80;3.40;;;16.40;77.00;;;;;;5048820;28;20344;-74
2022/10/13 09:22:12;;;;;;;5.38;3.05;;;16.40;77.00;;;;;;5040588;28;20120;-76
2022/10/13 09:24:38;;;;;;;6.07;3.13;;;16.40;77.00;;;;;;5048447;28;20517;-75
2022/10/13 09:27:10;;;;;;;5.93;3.58;;;16.40;77.00;;;;;;5048537;28;20029;-75
2022/10/13 09:29:36;;;;;;;5.78;3.40;;;16.40;77.10;;;;;;5047202;28;20055;-75
2022/10/13 09:32:22;;;;;;;6.43;3.58;;;16.40;77.10;;;;;;5048376;28;20033;-75
2022/10/13 09:34:48;;;;;;;5.55;3.45;;;16.40;77.10;;;;;;5047098;28;20106;-76
2022/10/13 09:37:22;;;;;;;5.63;3.53;;;16.40;77.00;;;;;;5047076;28;20163;-74
2022/10/13 09:40:12;;;;;;;5.68;3.10;;;16.40;77.10;;;;;;5046606;28;20059;-74
2022/10/13 09:42:38;;;;;;;6.43;3.67;;;16.40;77.10;;;;;;5046391;28;20032;-74
2022/10/13 09:45:16;;;;;;;5.65;3.35;;;16.40;77.10;;;;;;5046749;28;20032;-75
2022/10/13 09:47:53;;;;;;;6.03;3.40;;;16.50;77.00;;;;;;5046862;28;20021;-74
2022/10/13 09:50:26;;;;;;;6.03;3.20;;;16.50;76.80;;;;;;5046299;28;20064;-75
2022/10/13 09:52:52;;;;;;;5.28;3.20;;;16.60;76.80;;;;;;5046575;28;20589;-76
2022/10/13 09:55:29;;;;;;;5.60;3.40;;;16.60;76.70;;;;;;5047071;28;20032;-75
2022/10/13 09:57:59;;;;;;;6.35;3.70;;;16.60;76.60;;;;;;5046841;28;20036;-75
2022/10/13 10:00:26;;;;;;;5.10;3.00;;;16.60;76.60;;;;;;5046240;28;20033;-75
2022/10/13 10:03:04;;;;;;;6.13;3.70;;;16.60;76.70;;;;;;5047683;28;20966;-74
2022/10/13 10:06:21;;;;;;;5.20;3.25;;;16.60;76.70;;;;;;5047952;28;20119;-74
2022/10/13 10:08:56;;;;;;;6.45;3.28;;;16.60;76.80;;;;;;5013326;28;20045;-74
2022/10/13 10:11:28;;;;;;;5.10;2.85;;;16.60;76.90;;;;;;5045927;28;20025;-75
2022/10/13 10:13:54;;;;;;;5.60;3.00;;;16.60;77.00;;;;;;5047455;28;20052;-75
2022/10/13 10:16:30;;;;;;;5.28;3.22;;;16.50;77.00;;;;;;5047764;28;20025;-74
2022/10/13 10:19:25;;;;;;;6.35;3.38;;;16.60;77.00;;;;;;5046157;28;20033;-75
2022/10/13 10:22:07;;;;;;;5.47;3.20;;;16.60;77.00;;;;;;5047235;28;20055;-76
2022/10/13 10:24:32;;;;;;;5.32;3.08;;;16.50;76.90;;;;;;5047133;28;20028;-76
2022/10/13 10:27:19;;;;;;;6.28;3.47;;;16.50;76.80;;;;;;5047606;28;20155;-76
2022/10/13 10:29:47;;;;;;;6.65;3.38;;;16.60;76.80;;;;;;5047348;28;20227;-75
2022/10/13 10:32:25;;;;;;;5.30;3.20;;;16.60;76.90;;;;;;5045440;28;20021;-77
2022/10/13 10:35:19;;;;;;;5.28;3.10;;;16.50;77.00;;;;;;5045999;28;20499;-75
2022/10/13 10:38:00;;;;;;;5.10;2.97;;;16.50;77.10;;;;;;5045906;28;20044;-74
2022/10/13 10:40:38;;;;;;;6.25;3.30;;;16.50;77.20;;;;;;5045340;28;20094;-76
2022/10/13 10:43:24;;;;;;;5.55;3.45;;;16.50;77.20;;;;;;5046863;28;20075;-75
2022/10/13 10:45:50;;;;;;;5.85;3.20;;;16.50;77.30;;;;;;5047109;28;20037;-74
2022/10/13 10:48:25;;;;;;;5.03;3.15;;;16.50;77.40;;;;;;5046665;28;20565;-75
2022/10/13 10:50:52;;;;;;;5.55;3.35;;;16.50;77.40;;;;;;5045237;28;20021;-75
2022/10/13 10:53:44;;;;;;;5.43;3.30;;;16.40;77.50;;;;;;5045420;28;20445;-74
2022/10/13 10:56:23;;;;;;;5.63;3.38;;;16.50;77.50;;;;;;5046784;28;20102;-75
2022/10/13 10:59:02;;;;;;;5.30;3.15;;;16.40;77.60;;;;;;5046750;28;20041;-74
2022/10/13 11:01:44;;;;;;;5.45;3.40;;;16.40;77.60;;;;;;5046346;28;20029;-74
2022/10/13 11:04:19;;;;;;;5.32;3.35;;;16.40;77.70;;;;;;5046616;28;20094;-74
2022/10/13 11:06:44;;;;;;;5.30;3.17;;;16.40;77.70;;;;;;5044638;28;20198;-76
2022/10/13 11:09:10;;;;;;;5.70;3.00;;;16.40;77.70;;;;;;5044936;28;20470;-74
2022/10/13 11:11:41;;;;;;;5.68;3.50;;;16.40;77.80;;;;;;5046385;28;20534;-75
2022/10/13 11:14:06;;;;;;;5.40;3.33;;;16.40;77.80;;;;;;5045486;28;20116;-74
2022/10/13 11:16:40;;;;;;;5.00;3.00;;;16.40;77.90;;;;;;5045115;28;20131;-75
2022/10/13 11:19:34;;;;;;;5.65;3.20;;;16.40;77.90;;;;;;5045262;28;20029;-75
2022/10/13 11:22:00;;;;;;;5.55;3.08;;;16.40;77.90;;;;;;5044607;28;20504;-74
2022/10/13 11:24:35;;;;;;;6.10;3.60;;;16.40;77.80;;;;;;5045186;28;20029;-75
2022/10/13 11:27:06;;;;;;;6.30;3.40;;;16.40;77.80;;;;;;5044858;28;20033;-75
2022/10/13 11:29:56;;;;;;;6.57;3.45;;;16.40;77.70;;;;;;5046398;28;20098;-76
2022/10/13 11:32:54;;;;;;;5.53;3.53;;;16.40;77.70;;;;;;5045944;28;20098;-75
2022/10/13 11:35:10;;;;;;;4.55;2.80;;;16.50;77.60;;;;;;5046006;28;20851;-76
2022/10/13 11:37:59;;;;;;;4.63;2.88;;;16.50;77.60;;;;;;5046038;28;20021;-76
2022/10/13 11:41:02;;;;;;;5.43;3.10;;;16.50;77.60;;;;;;5046018;28;20511;-75
2022/10/13 11:43:39;;;;;;;5.63;3.20;;;16.50;77.70;;;;;;5046682;28;20056;-75
2022/10/13 11:46:19;;;;;;;5.00;3.10;;;16.40;77.70;;;;;;5045159;28;20470;-76
2022/10/13 11:49:06;;;;;;;5.37;2.87;;;16.50;77.80;;;;;;5045102;28;20041;-76
2022/10/13 11:52:05;;;;;;;4.80;2.78;;;16.40;78.30;;;;;;5044109;28;20024;-76
2022/10/13 11:54:39;;;;;;;5.17;3.10;;;16.50;77.80;;;;;;5045824;28;20032;-75
2022/10/13 11:57:25;;;;;;;5.28;3.08;;;16.50;77.80;;;;;;5045895;28;20132;-75
2022/10/13 11:59:54;;;;;;;5.05;2.78;;;16.50;77.80;;;;;;5044355;28;20021;-75
2022/10/13 12:02:22;;;;;;;4.68;2.83;;;16.50;78.30;;;;;;5044271;28;20013;-75
2022/10/13 12:05:02;;;;;;;4.80;2.95;;;16.50;77.80;;;;;;5045659;28;20032;-75
2022/10/13 12:07:33;;;;;;;4.80;2.70;;;16.50;77.80;;;;;;5043802;28;20031;-76
2022/10/13 12:09:59;;;;;;;4.93;2.92;;;16.50;77.80;;;;;;5045639;28;20021;-75
2022/10/13 12:12:24;;;;;;;4.85;3.15;;;16.50;77.80;;;;;;5045152;28;20090;-78
2022/10/13 12:14:55;;;;;;;4.47;2.80;;;16.50;77.80;;;;;;5045301;28;20017;-76
2022/10/13 12:17:29;;;;;;;5.30;2.80;;;16.50;77.80;;;;;;5045520;28;20052;-75
2022/10/13 12:20:00;;;;;;;4.95;2.90;;;16.60;77.80;;;;;;5044737;28;20733;-75
2022/10/13 12:22:26;;;;;;;5.20;3.10;;;16.50;77.60;;;;;;5044967;28;20074;-74
2022/10/13 12:24:57;;;;;;;5.93;3.25;;;16.50;77.60;;;;;;5045090;28;20052;-75
2022/10/13 12:27:23;;;;;;;5.43;2.92;;;16.60;77.60;;;;;;5044063;28;20056;-76
2022/10/13 12:29:48;;;;;;;5.13;2.78;;;16.60;77.50;;;;;;5045308;28;20053;-77
2022/10/13 12:32:23;;;;;;;5.15;2.90;;;16.60;77.50;;;;;;5043484;28;20116;-74
2022/10/13 12:34:48;;;;;;;4.22;2.78;;;16.70;77.40;;;;;;5045276;28;20027;-74
2022/10/13 12:37:32;;;;;;;5.53;3.20;;;16.70;77.20;;;;;;5043711;28;20033;-75
2022/10/13 12:39:59;;;;;;;4.43;2.70;;;16.80;77.10;;;;;;5043947;28;20025;-76
2022/10/13 12:42:30;;;;;;;5.53;2.88;;;16.80;76.90;;;;;;5045012;28;20912;-75
2022/10/13 12:44:58;;;;;;;4.88;2.92;;;16.80;76.90;;;;;;5044875;28;20030;-75
2022/10/13 12:47:48;;;;;;;5.03;2.92;;;16.80;76.80;;;;;;5043995;28;20028;-75
2022/10/13 12:50:26;;;;;;;5.90;2.85;;;16.80;76.90;;;;;;5045192;28;20096;-75
2022/10/13 12:53:07;;;;;;;5.80;3.10;;;16.80;77.00;;;;;;5043814;28;20097;-74
2022/10/13 12:55:34;;;;;;;4.85;2.55;;;16.80;77.10;;;;;;5043796;28;20032;-76
2022/10/13 12:58:00;;;;;;;4.35;2.58;;;16.80;77.10;;;;;;5043598;28;20029;-74
2022/10/13 13:00:28;;;;;;;5.20;2.90;;;16.80;77.20;;;;;;5043420;28;20033;-75
2022/10/13 13:02:55;;;;;;;5.30;2.88;;;16.80;77.30;;;;;;5045080;28;20051;-73